Oakey, Australia
Current Conditions -  °F | °C
As of 1:00 PM on Wednesday 22 Oct 2014 (Local Time) from YBOK Reporting Station
Clear Clear  
Wind Chill: 75°   Ceiling: Unl
Heat Index: 75°   Visibility: 6mi
Dew Point: 48°   Wind: 9mph
Humidity: 38%   Direction: 130°SE
Pressure: 30.18"   Gusts: NA
Location:  27.43°S, 151.72°E
Report Text: YBOK 220300Z 13008KT CAVOK 24/09 Q1022 NOSIG
Loading
Personal Weather Stations






























Interactive Weather Map
Tropical Storm Tracking
New forecast layout! Learn more

10-Day Weather Forecast

Advertisements
Track Severe Weather on mobile